createdAt,value
2022-11-28T00:01:19.278Z,96775.47
2022-11-28T00:03:46.135Z,96773.19
2022-11-28T00:06:13.033Z,96761.75
2022-11-28T00:08:39.929Z,96758.00
2022-11-28T00:11:07.515Z,96755.75
2022-11-28T00:13:34.405Z,96768.13
2022-11-28T00:16:02.000Z,96737.94
2022-11-28T00:18:29.085Z,96759.81
2022-11-28T00:21:03.061Z,96745.94
2022-11-28T00:23:30.548Z,96736.63
2022-11-28T00:26:01.024Z,96751.47
2022-11-28T00:28:27.764Z,96749.16
2022-11-28T00:30:54.763Z,96758.09
2022-11-28T00:33:22.000Z,96743.47
2022-11-28T00:35:48.767Z,96753.09
2022-11-28T00:38:15.726Z,96758.81
2022-11-28T00:40:45.649Z,96757.03
2022-11-28T00:43:13.118Z,96749.06
2022-11-28T00:45:39.962Z,96738.03
2022-11-28T00:48:06.776Z,96738.13
2022-11-28T00:50:33.426Z,96742.22
2022-11-28T00:53:00.424Z,96731.81
2022-11-28T00:55:27.442Z,96730.19
2022-11-28T00:57:55.391Z,96727.72
2022-11-28T01:00:22.370Z,96721.22
2022-11-28T01:02:49.368Z,96722.69
2022-11-28T01:05:16.313Z,96727.91
2022-11-28T01:07:43.172Z,96711.59
2022-11-28T01:10:11.231Z,96716.16
2022-11-28T01:12:37.990Z,96717.81
2022-11-28T01:15:06.247Z,96702.13
2022-11-28T01:17:33.274Z,96703.09
2022-11-28T01:20:00.028Z,96698.53
2022-11-28T01:22:26.720Z,96691.19
2022-11-28T01:24:53.462Z,96697.38
2022-11-28T01:27:20.149Z,96693.28
2022-11-28T01:29:46.799Z,96687.09
2022-11-28T01:32:13.406Z,96683.44
2022-11-28T01:34:40.219Z,96686.22
2022-11-28T01:37:07.125Z,96688.00
2022-11-28T01:39:34.050Z,96687.69
2022-11-28T01:42:01.502Z,96682.50
2022-11-28T01:44:28.200Z,96698.50
2022-11-28T01:46:54.958Z,96691.13
2022-11-28T01:49:35.274Z,96689.31
2022-11-28T01:52:04.330Z,96680.50
2022-11-28T01:54:31.230Z,96692.44
2022-11-28T01:57:01.470Z,96688.34
2022-11-28T01:59:29.434Z,96691.94
2022-11-28T02:01:56.194Z,96682.84
2022-11-28T02:04:23.048Z,96674.78
2022-11-28T02:06:49.950Z,96665.31
2022-11-28T02:09:16.764Z,96678.22
2022-11-28T02:11:58.850Z,96671.69
2022-11-28T02:14:31.235Z,96670.06
2022-11-28T02:17:15.079Z,96670.22
2022-11-28T02:20:00.463Z,96655.84
2022-11-28T02:22:38.516Z,96654.22
2022-11-28T02:25:08.938Z,96646.28
2022-11-28T02:27:39.370Z,96645.09
2022-11-28T02:30:14.765Z,96642.69
2022-11-28T02:32:42.572Z,96637.13
2022-11-28T02:35:12.483Z,96639.28
2022-11-28T02:37:39.194Z,96644.97
2022-11-28T02:40:09.055Z,96634.03
2022-11-28T02:42:49.293Z,96634.88
2022-11-28T02:45:37.483Z,96624.41
2022-11-28T02:54:00.394Z,96617.06
2022-11-28T02:56:27.008Z,96616.69
2022-11-28T02:58:53.883Z,96594.78
2022-11-28T03:01:26.616Z,96598.69
2022-11-28T03:03:55.893Z,96606.50
2022-11-28T03:06:41.917Z,96602.09
2022-11-28T03:09:30.598Z,96598.59
2022-11-28T03:12:29.763Z,96590.72
2022-11-28T03:15:10.244Z,96584.53
2022-11-28T03:17:48.814Z,96591.72
2022-11-28T03:20:31.801Z,96580.63
2022-11-28T03:26:02.306Z,96586.34
2022-11-28T03:28:32.155Z,96577.72
2022-11-28T03:31:07.423Z,96579.69
2022-11-28T03:33:35.258Z,96571.53
2022-11-28T03:36:04.207Z,96577.41
2022-11-28T03:38:33.204Z,96578.44
2022-11-28T03:41:00.583Z,96573.41
2022-11-28T03:43:28.012Z,96557.59
2022-11-28T03:45:55.997Z,96565.94
2022-11-28T03:48:27.514Z,96557.97
2022-11-28T03:50:56.196Z,96560.91
2022-11-28T03:53:23.974Z,96567.59
2022-11-28T03:55:52.774Z,96580.66
2022-11-28T03:58:22.432Z,96571.66
2022-11-28T04:00:51.721Z,96565.47
2022-11-28T04:03:22.858Z,96573.97
2022-11-28T04:06:06.683Z,96568.91
2022-11-28T04:08:36.129Z,96578.53
2022-11-28T04:11:02.661Z,96569.22
2022-11-28T04:13:33.228Z,96574.72
2022-11-28T04:16:02.870Z,96584.19
2022-11-28T04:18:48.186Z,96585.63
2022-11-28T04:21:30.044Z,96571.13
2022-11-28T04:23:57.303Z,96576.66
2022-11-28T04:26:28.153Z,96577.63
2022-11-28T04:28:54.733Z,96556.44
2022-11-28T04:31:22.672Z,96558.06
2022-11-28T04:33:50.439Z,96567.69
2022-11-28T04:36:17.174Z,96563.28
2022-11-28T04:38:43.817Z,96558.41
2022-11-28T04:41:12.271Z,96555.31
2022-11-28T04:43:43.329Z,96559.59
2022-11-28T04:46:12.448Z,96566.44
2022-11-28T04:48:39.103Z,96579.34
2022-11-28T04:51:22.009Z,96570.38
2022-11-28T04:53:59.577Z,96564.19
2022-11-28T04:56:28.284Z,96564.03
2022-11-28T04:58:55.191Z,96553.09
2022-11-28T05:01:25.901Z,96562.56
2022-11-28T05:03:52.516Z,96563.53
2022-11-28T05:06:24.296Z,96563.38
2022-11-28T05:08:50.962Z,96574.47
2022-11-28T05:11:17.750Z,96579.25
2022-11-28T05:13:44.897Z,96590.03
2022-11-28T05:16:13.084Z,96584.78
2022-11-28T05:18:39.831Z,96585.22
2022-11-28T05:21:09.066Z,96579.34
2022-11-28T05:23:39.368Z,96584.75
2022-11-28T05:26:15.617Z,96595.84
2022-11-28T05:28:46.388Z,96591.59
2022-11-28T05:31:13.613Z,96594.34
2022-11-28T05:33:40.787Z,96571.03
2022-11-28T05:36:12.620Z,96583.91
2022-11-28T05:38:39.897Z,96582.47
2022-11-28T05:41:07.229Z,96576.59
2022-11-28T05:43:33.882Z,96568.44
2022-11-28T05:46:00.549Z,96574.19
2022-11-28T05:48:27.254Z,96581.69
2022-11-28T05:50:53.999Z,96577.94
2022-11-28T05:53:21.842Z,96576.63
2022-11-28T05:55:48.592Z,96574.78
2022-11-28T05:58:15.449Z,96573.16
2022-11-28T06:00:42.181Z,96564.97
2022-11-28T06:03:08.843Z,96566.78
2022-11-28T06:05:42.586Z,96570.81
2022-11-28T06:08:11.091Z,96572.00
2022-11-28T06:10:37.854Z,96565.09
2022-11-28T06:13:04.640Z,96560.41
2022-11-28T06:15:36.217Z,96558.41
2022-11-28T06:18:04.299Z,96558.25
2022-11-28T06:20:30.995Z,96560.53
2022-11-28T06:22:57.748Z,96558.56
2022-11-28T06:25:24.519Z,96570.63
2022-11-28T06:27:51.166Z,96563.25
2022-11-28T06:30:17.859Z,96566.69
2022-11-28T06:32:44.377Z,96561.75
2022-11-28T06:35:11.027Z,96551.97
2022-11-28T06:37:39.820Z,96555.03
2022-11-28T06:40:07.034Z,96558.78
2022-11-28T06:49:30.072Z,96553.09
2022-11-28T06:51:56.791Z,96555.84
2022-11-28T06:54:23.535Z,96565.47
2022-11-28T06:56:50.656Z,96552.94
2022-11-28T06:59:17.194Z,96564.53
2022-11-28T07:01:43.771Z,96566.47
2022-11-28T07:04:10.398Z,96570.22
2022-11-28T07:06:37.661Z,96575.44
2022-11-28T07:09:04.531Z,96568.59
2022-11-28T07:11:32.041Z,96573.97
2022-11-28T07:13:59.174Z,96572.00
2022-11-28T07:16:27.495Z,96568.59
2022-11-28T07:18:54.258Z,96572.50
2022-11-28T07:21:20.831Z,96565.66
2022-11-28T07:23:47.745Z,96578.53
2022-11-28T07:26:15.651Z,96570.28
2022-11-28T07:28:42.588Z,96567.19
2022-11-28T07:31:13.608Z,96580.75
2022-11-28T07:33:40.806Z,96587.94
2022-11-28T07:36:08.539Z,96597.03
2022-11-28T07:38:35.301Z,96586.94
2022-11-28T07:41:08.669Z,96596.38
2022-11-28T07:43:35.466Z,96581.56
2022-11-28T07:46:06.878Z,96577.31
2022-11-28T07:48:33.783Z,96570.63
2022-11-28T07:51:00.624Z,96580.41
2022-11-28T07:53:27.375Z,96570.97
2022-11-28T07:55:54.095Z,96577.50
2022-11-28T07:58:22.369Z,96560.69
2022-11-28T08:00:49.195Z,96577.03
2022-11-28T08:03:16.206Z,96575.09
2022-11-28T08:05:49.556Z,96564.84
2022-11-28T08:08:17.706Z,96573.22
2022-11-28T08:10:44.627Z,96572.41
2022-11-28T08:13:11.299Z,96564.75
2022-11-28T08:15:39.152Z,96564.91
2022-11-28T08:18:06.412Z,96576.16
2022-11-28T08:20:33.613Z,96567.34
2022-11-28T08:23:01.773Z,96573.41
2022-11-28T08:25:28.808Z,96566.25
2022-11-28T08:27:55.619Z,96578.31
2022-11-28T08:30:22.553Z,96580.44
2022-11-28T08:32:49.304Z,96580.94
2022-11-28T08:35:15.968Z,96578.00
2022-11-28T08:37:42.846Z,96572.78
2022-11-28T08:40:09.756Z,96576.38
2022-11-28T08:42:39.041Z,96565.59
2022-11-28T08:45:07.317Z,96562.00
2022-11-28T08:47:35.210Z,96560.38
2022-11-28T08:50:02.940Z,96566.25
2022-11-28T08:52:30.303Z,96568.53
2022-11-28T08:54:57.081Z,96559.94
2022-11-28T08:57:24.350Z,96553.25
2022-11-28T08:59:52.324Z,96565.97
2022-11-28T09:02:23.236Z,96566.31
2022-11-28T09:04:52.528Z,96563.22
2022-11-28T09:07:19.356Z,96564.53
2022-11-28T09:09:46.580Z,96569.75
2022-11-28T09:12:13.317Z,96570.72
2022-11-28T09:14:40.077Z,96565.69
2022-11-28T09:17:06.984Z,96570.53
2022-11-28T09:19:34.054Z,96572.16
2022-11-28T09:22:00.773Z,96573.66
2022-11-28T09:27:06.616Z,96563.84
2022-11-28T09:29:33.323Z,96556.81
2022-11-28T09:32:00.150Z,96558.13
2022-11-28T09:34:27.869Z,96566.00
2022-11-28T09:36:54.580Z,96573.03
2022-11-28T09:39:22.448Z,96572.19
2022-11-28T09:41:54.898Z,96577.44
2022-11-28T09:44:27.316Z,96571.88
2022-11-28T09:46:55.308Z,96571.72
2022-11-28T09:49:29.028Z,96572.03
2022-11-28T09:51:59.931Z,96576.78
2022-11-28T09:54:33.134Z,96573.50
2022-11-28T09:56:59.792Z,96575.31
2022-11-28T09:59:27.806Z,96582.03
2022-11-28T10:02:09.996Z,96577.63
2022-11-28T10:04:37.320Z,96580.25
2022-11-28T10:07:07.053Z,96573.69
2022-11-28T10:09:43.235Z,96583.16
2022-11-28T10:12:13.027Z,96588.06
2022-11-28T10:14:46.618Z,96590.50
2022-11-28T10:17:23.055Z,96590.84
2022-11-28T10:19:55.120Z,96580.38
2022-11-28T10:22:42.168Z,96583.16
2022-11-28T10:25:15.033Z,96580.06
2022-11-28T10:27:41.962Z,96573.19
2022-11-28T10:30:11.344Z,96580.38
2022-11-28T10:32:41.705Z,96577.09
2022-11-28T10:35:17.782Z,96579.25
2022-11-28T10:37:44.468Z,96572.88
2022-11-28T10:40:20.528Z,96570.56
2022-11-28T10:43:01.820Z,96571.91
2022-11-28T10:45:46.926Z,96584.13
2022-11-28T10:48:39.063Z,96579.22
2022-11-28T10:51:13.456Z,96575.50
2022-11-28T10:53:56.847Z,96578.44
2022-11-28T10:56:32.645Z,96583.31
2022-11-28T10:59:02.915Z,96595.06
2022-11-28T11:01:35.340Z,96575.31
2022-11-28T11:04:02.159Z,96588.06
2022-11-28T11:06:40.783Z,96578.09
2022-11-28T11:09:11.245Z,96576.28
2022-11-28T11:11:38.472Z,96584.63
2022-11-28T11:14:06.518Z,96579.72
2022-11-28T11:16:49.905Z,96579.06
2022-11-28T11:19:30.188Z,96580.84
2022-11-28T11:22:00.932Z,96582.34
2022-11-28T11:24:28.376Z,96579.03
2022-11-28T11:26:55.654Z,96581.53
2022-11-28T11:29:35.760Z,96583.16
2022-11-28T11:32:06.922Z,96588.88
2022-11-28T11:34:54.204Z,96584.78
2022-11-28T11:37:34.436Z,96588.06
2022-11-28T11:40:01.474Z,96584.31
2022-11-28T11:42:29.836Z,96582.03
2022-11-28T11:44:57.198Z,96579.41
2022-11-28T11:47:39.900Z,96575.81
2022-11-28T11:50:06.993Z,96570.72
2022-11-28T11:52:33.743Z,96571.88
2022-11-28T11:55:07.237Z,96572.84
2022-11-28T11:57:37.964Z,96573.81
2022-11-28T12:00:13.784Z,96579.22
2022-11-28T12:02:40.770Z,96576.44
2022-11-28T12:05:18.262Z,96575.16
2022-11-28T12:08:02.001Z,96574.81
2022-11-28T12:10:30.935Z,96580.34
2022-11-28T12:12:57.756Z,96584.78
2022-11-28T12:18:26.209Z,96582.78
2022-11-28T12:20:56.110Z,96582.63
2022-11-28T12:23:26.271Z,96584.25
2022-11-28T12:26:05.365Z,96583.44
2022-11-28T12:28:39.602Z,96588.34
2022-11-28T12:31:10.001Z,96587.53
2022-11-28T12:33:55.808Z,96584.91
2022-11-28T12:36:22.773Z,96580.34
2022-11-28T12:38:59.665Z,96577.41
2022-11-28T12:41:32.711Z,96578.56
2022-11-28T12:44:14.719Z,96578.22
2022-11-28T12:46:44.823Z,96575.97
2022-11-28T12:49:17.777Z,96575.16
2022-11-28T12:51:52.102Z,96571.25
2022-11-28T12:54:41.082Z,96578.56
2022-11-28T12:57:26.887Z,96567.63
2022-11-28T12:59:56.963Z,96572.72
2022-11-28T13:02:33.483Z,96571.91
2022-11-28T13:05:10.754Z,96573.88
2022-11-28T13:07:53.345Z,96564.72
2022-11-28T13:10:27.575Z,96571.59
2022-11-28T13:12:57.515Z,96571.91
2022-11-28T13:15:43.076Z,96561.09
2022-11-28T13:18:16.072Z,96557.19
2022-11-28T13:20:43.602Z,96553.25
2022-11-28T13:23:16.528Z,96549.50
2022-11-28T13:25:53.985Z,96546.25
2022-11-28T13:44:45.268Z,96549.34
2022-11-28T13:47:21.498Z,96550.97
2022-11-28T13:52:31.915Z,96567.31
2022-11-28T13:55:23.987Z,96564.69
2022-11-28T14:03:18.405Z,96571.72
2022-11-28T14:08:28.019Z,96563.38
2022-11-28T14:11:10.755Z,96564.34
2022-11-28T14:13:48.442Z,96564.66
2022-11-28T14:16:18.755Z,96565.31
2022-11-28T14:21:38.214Z,96564.84
2022-11-28T14:24:14.782Z,96565.84
2022-11-28T14:26:43.252Z,96559.63
2022-11-28T14:29:23.591Z,96568.94
2022-11-28T14:34:40.813Z,96578.56
2022-11-28T14:37:19.871Z,96574.97
2022-11-28T14:39:47.787Z,96577.75
2022-11-28T14:42:30.466Z,96578.06
2022-11-28T14:45:08.363Z,96575.34
2022-11-28T14:50:21.502Z,96593.47
2022-11-28T14:55:52.306Z,96589.88
2022-11-28T14:58:22.313Z,96586.59
2022-11-28T15:03:46.051Z,96587.56
2022-11-28T15:14:23.510Z,96596.22
2022-11-28T15:28:32.693Z,96600.00
2022-11-28T15:31:00.639Z,96600.00
2022-11-28T15:33:27.748Z,96600.63
2022-11-28T15:38:44.612Z,96601.28
2022-11-28T15:46:40.102Z,96602.44
2022-11-28T15:49:20.825Z,96603.41
2022-11-28T15:51:51.135Z,96601.94
2022-11-28T15:54:42.153Z,96610.78
2022-11-28T15:57:24.126Z,96616.00
2022-11-28T15:59:51.138Z,96615.19
2022-11-28T16:02:36.236Z,96619.75
2022-11-28T16:05:07.696Z,96614.34
2022-11-28T16:07:40.502Z,96615.34
2022-11-28T16:10:08.829Z,96610.78
2022-11-28T16:12:36.626Z,96626.44
2022-11-28T16:15:06.217Z,96620.06
2022-11-28T16:17:33.313Z,96621.88
2022-11-28T16:20:02.526Z,96622.84
2022-11-28T16:22:36.634Z,96624.50
2022-11-28T16:25:19.294Z,96622.03
2022-11-28T16:27:49.235Z,96624.00
2022-11-28T16:30:27.028Z,96621.22
2022-11-28T16:35:40.609Z,96625.13
2022-11-28T16:38:15.908Z,96635.75
2022-11-28T16:40:42.982Z,96641.81
2022-11-28T16:43:20.500Z,96634.63
2022-11-28T16:45:48.184Z,96632.00
2022-11-28T16:48:19.644Z,96641.47
2022-11-28T16:51:07.492Z,96632.00
2022-11-28T16:53:58.566Z,96634.28
2022-11-28T16:56:46.130Z,96638.53
2022-11-28T16:59:21.259Z,96641.16
2022-11-28T17:01:49.270Z,96639.19
2022-11-28T17:04:27.392Z,96641.81
2022-11-28T17:09:37.283Z,96640.81
2022-11-28T17:12:05.598Z,96641.16
2022-11-28T17:14:32.766Z,96651.59
2022-11-28T17:17:01.173Z,96646.38
2022-11-28T17:19:28.532Z,96644.75
2022-11-28T17:21:57.383Z,96645.56
2022-11-28T17:24:28.511Z,96645.06
2022-11-28T17:26:56.985Z,96645.06
2022-11-28T17:29:25.515Z,96646.88
2022-11-28T17:31:55.497Z,96651.59
2022-11-28T17:34:30.511Z,96657.47
2022-11-28T17:36:58.074Z,96657.47
2022-11-28T17:39:24.904Z,96659.13
2022-11-28T17:41:51.944Z,96659.94
2022-11-28T17:44:20.080Z,96658.13
2022-11-28T17:46:47.187Z,96662.06
2022-11-28T17:49:14.119Z,96657.66
2022-11-28T17:51:44.019Z,96662.72
2022-11-28T17:54:13.658Z,96663.53
2022-11-28T17:56:40.618Z,96666.94
2022-11-28T18:02:29.517Z,96663.19
2022-11-28T18:04:56.785Z,96664.00
2022-11-28T18:07:23.862Z,96659.59
2022-11-28T18:09:51.652Z,96658.78
2022-11-28T18:12:19.902Z,96663.69
2022-11-28T18:14:47.083Z,96668.91
2022-11-28T18:17:14.051Z,96676.75
2022-11-28T18:19:41.229Z,96674.13
2022-11-28T18:22:09.168Z,96673.00
2022-11-28T18:24:36.843Z,96672.53
2022-11-28T18:27:05.404Z,96681.50
2022-11-28T18:29:37.888Z,96677.09
2022-11-28T18:39:04.275Z,96681.66
2022-11-28T18:41:31.234Z,96685.25
2022-11-28T18:44:01.025Z,96685.91
2022-11-28T18:46:28.729Z,96694.56
2022-11-28T18:48:55.826Z,96692.78
2022-11-28T18:51:23.763Z,96699.66
2022-11-28T18:53:52.887Z,96690.84
2022-11-28T18:56:19.972Z,96695.09
2022-11-28T18:58:48.508Z,96696.72
2022-11-28T19:01:18.321Z,96704.41
2022-11-28T19:03:51.182Z,96701.78
2022-11-28T19:06:19.121Z,96703.59
2022-11-28T19:08:46.003Z,96704.56
2022-11-28T19:11:15.410Z,96710.44
2022-11-28T19:13:45.616Z,96704.56
2022-11-28T19:16:14.419Z,96702.13
2022-11-28T19:18:41.309Z,96708.97
2022-11-28T19:21:08.723Z,96704.41
2022-11-28T19:23:35.883Z,96707.84
2022-11-28T19:26:06.615Z,96712.41
2022-11-28T19:28:34.758Z,96711.44
2022-11-28T19:31:05.431Z,96715.03
2022-11-28T19:33:32.500Z,96711.44
2022-11-28T19:36:02.968Z,96716.31
2022-11-28T19:38:29.932Z,96715.50
2022-11-28T19:40:56.655Z,96713.88
2022-11-28T19:43:23.801Z,96718.94
2022-11-28T19:45:54.562Z,96718.78
2022-11-28T19:48:21.519Z,96712.41
2022-11-28T19:50:49.415Z,96715.19
2022-11-28T19:53:16.158Z,96715.34
2022-11-28T19:55:42.943Z,96712.06
2022-11-28T19:58:09.778Z,96713.06
2022-11-28T20:00:36.924Z,96721.56
2022-11-28T20:03:03.818Z,96724.81
2022-11-28T20:05:31.121Z,96724.66
2022-11-28T20:07:58.859Z,96719.28
2022-11-28T20:10:26.574Z,96726.13
2022-11-28T20:12:54.972Z,96728.75
2022-11-28T20:15:22.129Z,96733.16
2022-11-28T20:17:49.072Z,96733.81
2022-11-28T20:23:01.405Z,96740.69
2022-11-28T20:25:28.475Z,96745.09
2022-11-28T20:27:55.368Z,96741.81
2022-11-28T20:30:22.149Z,96743.47
2022-11-28T20:32:48.909Z,96738.88
2022-11-28T20:35:15.813Z,96744.78
2022-11-28T20:37:42.562Z,96748.88
2022-11-28T20:42:46.971Z,96739.69
2022-11-28T20:45:13.797Z,96744.13
2022-11-28T20:47:48.266Z,96747.72
2022-11-28T20:50:16.574Z,96743.28
2022-11-28T20:55:23.899Z,96750.97
2022-11-28T20:57:50.711Z,96753.59
2022-11-28T21:00:19.434Z,96750.03
2022-11-28T21:02:49.068Z,96750.03
2022-11-28T21:05:15.949Z,96745.44
2022-11-28T21:07:42.831Z,96753.94
2022-11-28T21:10:09.746Z,96752.97
2022-11-28T21:12:36.585Z,96756.41
2022-11-28T21:15:03.543Z,96760.81
2022-11-28T21:17:30.314Z,96762.13
2022-11-28T21:19:57.146Z,96763.09
2022-11-28T21:22:23.913Z,96757.88
2022-11-28T21:24:51.731Z,96763.59
2022-11-28T21:27:21.585Z,96764.41
2022-11-28T21:29:52.287Z,96764.41
2022-11-28T21:32:19.393Z,96767.34
2022-11-28T21:34:46.757Z,96759.06
2022-11-28T21:37:13.614Z,96763.13
2022-11-28T21:39:40.572Z,96762.47
2022-11-28T21:42:07.494Z,96762.47
2022-11-28T21:44:34.488Z,96763.13
2022-11-28T21:47:01.113Z,96759.38
2022-11-28T21:49:27.900Z,96767.56
2022-11-28T21:51:57.140Z,96763.66
2022-11-28T21:54:23.973Z,96766.09
2022-11-28T21:56:50.882Z,96768.06
2022-11-28T21:59:17.617Z,96766.09
2022-11-28T22:01:44.525Z,96767.72
2022-11-28T22:04:11.344Z,96768.38
2022-11-28T22:06:38.250Z,96767.41
2022-11-28T22:09:09.165Z,96770.66
2022-11-28T22:11:36.681Z,96765.28
2022-11-28T22:14:03.448Z,96765.78
2022-11-28T22:16:32.275Z,96768.06
2022-11-28T22:19:01.598Z,96761.69
2022-11-28T22:24:18.030Z,96769.38
2022-11-28T22:26:44.901Z,96767.56
2022-11-28T22:29:11.963Z,96773.63
2022-11-28T22:31:39.476Z,96775.13
2022-11-28T22:34:06.324Z,96774.94
2022-11-28T22:36:34.559Z,96782.63
2022-11-28T22:39:02.897Z,96782.31
2022-11-28T22:41:30.038Z,96786.56
2022-11-28T22:43:57.834Z,96783.94
2022-11-28T22:46:25.026Z,96788.97
2022-11-28T22:48:52.253Z,96788.34
2022-11-28T22:51:20.541Z,96789.66
2022-11-28T22:53:47.553Z,96790.47
2022-11-28T22:56:15.067Z,96783.25
2022-11-28T22:58:43.119Z,96782.44
2022-11-28T23:01:11.498Z,96790.66
2022-11-28T23:03:38.425Z,96788.03
2022-11-28T23:06:09.919Z,96786.06
2022-11-28T23:08:36.651Z,96790.31
2022-11-28T23:11:07.480Z,96788.84
2022-11-28T23:13:34.921Z,96794.22
2022-11-28T23:16:19.667Z,96787.03
2022-11-28T23:18:47.888Z,96790.31
2022-11-28T23:21:14.911Z,96788.69
2022-11-28T23:23:41.781Z,96797.53
2022-11-28T23:26:21.115Z,96798.34
2022-11-28T23:28:47.917Z,96799.97
2022-11-28T23:31:16.824Z,96793.91
2022-11-28T23:33:44.021Z,96797.53
2022-11-28T23:36:20.991Z,96796.53
2022-11-28T23:38:48.298Z,96798.34
2022-11-28T23:41:16.214Z,96794.91
2022-11-28T23:43:43.058Z,96792.94
2022-11-28T23:46:10.572Z,96795.56
2022-11-28T23:48:38.578Z,96794.56
2022-11-28T23:51:07.041Z,96800.78
2022-11-28T23:53:34.176Z,96799.16
2022-11-28T23:56:07.035Z,96791.47
2022-11-28T23:58:34.169Z,96795.56
